Delaware County Johnson Field
KMIE : now visible

Airfield :











YOU CAN JOIN US ON...

 
LOGIN :

Register | Disclaimer

   EN    FR    IT 

 









Legend :    VFR   Marginal VFR   IFR   Intensive IFR   Very Intensive IFR
Visi :
Ceiling :
>= 8 km
>= 3000ft
5 to 8 km
1000 to 3000 ft
1500m to 5 km
500 to 1000 ft
800 to 1500m
200 to 500 ft
< 800m
< 200 ft
Symbols :   Thunderstorms  Fog  Heavy snow  Heavy precipitations  Wind > 20 kt






- Airport Elevation : 937 ft
- IATA code : MIE


KMIE - Delaware County Johnson Field

CURRENT METAR :
  • 190503Z AUTO 28014G31KT 8SM -SN SCT021 OVC025 M06/M11 A2999 RMK AO2 PK WND 27028/0500 P0000 T10611111

EXPIRED METARs :
  • 190453Z AUTO 28018G28KT 2 1/2SM -SN FEW018 OVC025 M07/M11 A2999 RMK AO2 PK WND 29035/0418 SNE00B20 SLP161 P0000 T10671106 400831067
  • 190353Z AUTO 28021G34KT 5SM -SN OVC021 M06/M11 A2996 RMK AO2 PK WND 26040/0313 SNB04 SLP151 P0000 T10561106
  • 190253Z 27025G37KT 10SM OVC022 M04/M09 A2994 RMK AO2 PK WND 28040/0201 SLP144 60000 I3001 T10391089 53021

TAF N/A



MET'MAP, your aeronautical weather chart ! - Copyright ORBIFLY December 2007 - Disclaimer

ORBIFLY MET'MAP TEAM :

Programming & Development : Alexandra Zaïnal
Concept & original design : Baudouin d'Aumeries
Assistance for programming : Marc-Olivier Méhu
Technical & hardware support : Manuel Goepfert

Contact : metmap@orbifly.com




SOURCES & CREDITS :

   NOAA       Earth
Advisory